createdAt,value
2022-10-29T00:00:41.586Z,96325.75
2022-10-29T00:03:44.995Z,96325.13
2022-10-29T00:06:48.022Z,96324.34
2022-10-29T00:09:49.997Z,96324.50
2022-10-29T00:12:51.929Z,96320.47
2022-10-29T00:15:53.945Z,96327.53
2022-10-29T00:18:57.494Z,96322.84
2022-10-29T00:21:59.458Z,96311.81
2022-10-29T00:25:01.310Z,96318.88
2022-10-29T00:28:03.369Z,96329.31
2022-10-29T00:31:06.464Z,96319.41
2022-10-29T00:34:09.902Z,96332.28
2022-10-29T00:37:11.860Z,96323.50
2022-10-29T00:40:13.906Z,96322.06
2022-10-29T00:43:18.198Z,96325.88
2022-10-29T00:46:27.678Z,96322.59
2022-10-29T00:49:33.038Z,96322.50
2022-10-29T00:52:41.179Z,96321.06
2022-10-29T00:55:43.232Z,96317.31
2022-10-29T00:58:46.135Z,96321.88
2022-10-29T01:01:49.336Z,96323.31
2022-10-29T01:04:53.780Z,96322.31
2022-10-29T01:07:55.809Z,96320.84
2022-10-29T01:11:05.156Z,96313.63
2022-10-29T01:14:17.710Z,96318.16
2022-10-29T01:17:28.605Z,96314.47
2022-10-29T01:21:02.076Z,96313.94
2022-10-29T01:24:40.252Z,96320.81
2022-10-29T01:27:56.364Z,96304.28
2022-10-29T01:31:09.094Z,96305.00
2022-10-29T01:34:17.514Z,96300.16
2022-10-29T01:37:28.435Z,96293.69
2022-10-29T01:40:35.168Z,96300.34
2022-10-29T01:43:41.673Z,96298.78
2022-10-29T01:46:49.794Z,96298.00
2022-10-29T01:49:57.281Z,96294.50
2022-10-29T01:53:00.549Z,96298.75
2022-10-29T01:56:02.516Z,96299.19
2022-10-29T01:59:11.353Z,96300.00
2022-10-29T02:02:30.432Z,96300.00
2022-10-29T02:05:35.743Z,96292.63
2022-10-29T02:08:46.037Z,96307.38
2022-10-29T02:11:54.606Z,96308.50
2022-10-29T02:15:02.714Z,96312.47
2022-10-29T02:18:08.175Z,96309.41
2022-10-29T02:21:10.206Z,96301.75
2022-10-29T02:24:12.258Z,96314.31
2022-10-29T02:27:14.288Z,96308.28
2022-10-29T02:30:16.613Z,96304.91
2022-10-29T02:33:19.940Z,96306.06
2022-10-29T02:36:21.803Z,96310.63
2022-10-29T02:39:23.891Z,96301.03
2022-10-29T02:42:26.048Z,96312.22
2022-10-29T02:45:27.978Z,96306.63
2022-10-29T02:48:31.261Z,96312.81
2022-10-29T02:51:33.255Z,96310.75
2022-10-29T02:54:35.193Z,96312.81
2022-10-29T02:57:37.133Z,96305.16
2022-10-29T03:00:39.024Z,96310.91
2022-10-29T03:03:42.444Z,96313.69
2022-10-29T03:06:44.464Z,96307.56
2022-10-29T03:09:46.412Z,96306.16
2022-10-29T03:12:48.360Z,96301.91
2022-10-29T03:15:50.252Z,96298.44
2022-10-29T03:18:53.779Z,96306.22
2022-10-29T03:21:55.870Z,96302.34
2022-10-29T03:24:57.831Z,96310.47
2022-10-29T03:27:59.768Z,96318.53
2022-10-29T03:31:01.636Z,96324.31
2022-10-29T03:34:04.933Z,96327.25
2022-10-29T03:37:06.973Z,96333.75
2022-10-29T03:40:09.648Z,96337.94
2022-10-29T03:43:11.603Z,96334.81
2022-10-29T03:46:13.684Z,96341.28
2022-10-29T03:49:17.031Z,96355.06
2022-10-29T03:52:19.062Z,96336.66
2022-10-29T03:55:21.009Z,96341.72
2022-10-29T03:58:23.506Z,96333.84
2022-10-29T04:01:25.582Z,96327.47
2022-10-29T04:04:28.991Z,96329.88
2022-10-29T04:07:31.029Z,96330.63
2022-10-29T04:10:33.147Z,96335.16
2022-10-29T04:13:35.128Z,96332.28
2022-10-29T04:16:37.330Z,96327.28
2022-10-29T04:19:40.807Z,96334.69
2022-10-29T04:27:45.470Z,96332.34
2022-10-29T04:29:27.171Z,96326.44
2022-10-29T04:32:29.084Z,96332.28
2022-10-29T04:35:32.468Z,96338.47
2022-10-29T04:38:34.443Z,96339.63
2022-10-29T04:41:36.355Z,96332.75
2022-10-29T04:44:38.294Z,96336.16
2022-10-29T04:47:40.220Z,96329.47
2022-10-29T04:50:43.589Z,96335.94
2022-10-29T04:53:45.513Z,96344.06
2022-10-29T04:56:47.444Z,96338.16
2022-10-29T04:59:49.439Z,96336.97
2022-10-29T05:02:52.284Z,96334.59
2022-10-29T05:05:55.626Z,96331.88
2022-10-29T05:08:57.849Z,96330.78
2022-10-29T05:11:59.745Z,96336.41
2022-10-29T05:15:02.053Z,96320.41
2022-10-29T05:18:04.884Z,96332.41
2022-10-29T05:21:08.191Z,96331.91
2022-10-29T05:24:10.101Z,96333.78
2022-10-29T05:27:12.012Z,96332.16
2022-10-29T05:30:14.291Z,96321.22
2022-10-29T05:33:18.446Z,96327.94
2022-10-29T05:36:21.775Z,96333.03
2022-10-29T05:39:23.750Z,96328.38
2022-10-29T05:42:27.824Z,96320.41
2022-10-29T05:45:29.765Z,96315.19
2022-10-29T05:48:31.741Z,96311.28
2022-10-29T05:51:35.177Z,96314.06
2022-10-29T05:54:37.142Z,96317.25
2022-10-29T05:57:39.183Z,96306.88
2022-10-29T06:00:43.947Z,96322.75
2022-10-29T06:03:46.315Z,96313.53
2022-10-29T06:06:49.656Z,96319.00
2022-10-29T06:09:51.600Z,96313.47
2022-10-29T06:12:53.708Z,96314.16
2022-10-29T06:15:58.366Z,96308.34
2022-10-29T06:19:00.352Z,96304.28
2022-10-29T06:22:04.912Z,96304.09
2022-10-29T06:25:07.748Z,96307.50
2022-10-29T06:28:12.162Z,96304.66
2022-10-29T06:31:14.148Z,96307.94
2022-10-29T06:34:16.110Z,96304.28
2022-10-29T06:37:19.472Z,96310.56
2022-10-29T06:40:21.407Z,96303.72
2022-10-29T06:43:23.332Z,96317.84
2022-10-29T06:46:25.329Z,96315.72
2022-10-29T06:49:27.250Z,96315.94
2022-10-29T06:52:30.581Z,96312.69
2022-10-29T06:55:33.399Z,96316.34
2022-10-29T06:58:35.359Z,96313.28
2022-10-29T07:01:37.577Z,96305.38
2022-10-29T07:04:39.520Z,96310.66
2022-10-29T07:07:43.164Z,96316.38
2022-10-29T07:10:45.129Z,96310.84
2022-10-29T07:13:47.080Z,96319.97
2022-10-29T07:16:49.024Z,96318.63
2022-10-29T07:19:50.973Z,96306.53
2022-10-29T07:22:54.338Z,96309.34
2022-10-29T07:25:56.286Z,96316.13
2022-10-29T07:28:58.438Z,96309.69
2022-10-29T07:32:00.375Z,96316.44
2022-10-29T07:35:02.363Z,96314.56
2022-10-29T07:38:09.229Z,96315.03
2022-10-29T07:41:12.725Z,96314.31
2022-10-29T07:44:14.691Z,96314.38
2022-10-29T07:47:16.600Z,96312.50
2022-10-29T07:50:18.587Z,96315.28
2022-10-29T07:53:22.306Z,96316.50
2022-10-29T07:56:24.283Z,96312.69
2022-10-29T07:59:26.250Z,96303.56
2022-10-29T08:02:28.170Z,96312.50
2022-10-29T08:05:30.871Z,96323.09
2022-10-29T08:08:34.327Z,96325.84
2022-10-29T08:11:36.267Z,96338.69
2022-10-29T08:14:38.339Z,96343.81
2022-10-29T08:17:40.273Z,96334.16
2022-10-29T08:20:42.706Z,96337.28
2022-10-29T08:23:46.101Z,96334.22
2022-10-29T08:26:49.583Z,96325.38
2022-10-29T08:29:51.555Z,96326.97
2022-10-29T08:32:53.845Z,96335.25
2022-10-29T08:35:56.138Z,96336.88
2022-10-29T08:38:59.535Z,96328.75
2022-10-29T08:42:15.117Z,96329.16
2022-10-29T08:45:25.474Z,96340.47
2022-10-29T08:48:36.415Z,96350.22
2022-10-29T08:51:40.691Z,96348.72
2022-10-29T08:54:47.738Z,96348.78
2022-10-29T08:57:54.628Z,96340.31
2022-10-29T09:00:58.818Z,96348.53
2022-10-29T09:04:00.908Z,96350.94
2022-10-29T09:07:25.977Z,96352.09
2022-10-29T09:10:34.463Z,96352.50
2022-10-29T09:13:49.121Z,96351.75
2022-10-29T09:16:55.512Z,96347.47
2022-10-29T09:20:12.462Z,96346.66
2022-10-29T09:23:24.557Z,96344.34
2022-10-29T09:26:31.261Z,96356.81
2022-10-29T09:29:51.565Z,96345.53
2022-10-29T09:32:59.827Z,96346.72
2022-10-29T09:36:02.440Z,96347.84
2022-10-29T09:39:12.396Z,96345.94
2022-10-29T09:42:20.112Z,96358.41
2022-10-29T09:45:30.291Z,96356.47
2022-10-29T09:48:38.577Z,96349.47
2022-10-29T09:51:46.386Z,96351.78
2022-10-29T09:54:49.690Z,96344.00
2022-10-29T09:57:54.179Z,96333.91
2022-10-29T10:00:56.356Z,96340.13
2022-10-29T10:04:04.222Z,96335.06
2022-10-29T10:07:08.137Z,96336.59
2022-10-29T10:10:21.134Z,96333.06
2022-10-29T10:13:27.590Z,96333.09
2022-10-29T10:16:33.363Z,96326.44
2022-10-29T10:19:43.510Z,96325.66
2022-10-29T10:22:47.280Z,96322.47
2022-10-29T10:25:52.967Z,96322.41
2022-10-29T10:29:09.654Z,96317.69
2022-10-29T10:32:16.037Z,96318.81
2022-10-29T10:35:26.673Z,96324.25
2022-10-29T10:38:29.377Z,96319.13
2022-10-29T10:41:35.342Z,96305.47
2022-10-29T10:44:44.993Z,96309.31
2022-10-29T10:47:50.172Z,96310.88
2022-10-29T10:50:53.787Z,96304.19
2022-10-29T10:53:55.887Z,96305.69
2022-10-29T10:57:00.349Z,96306.44
2022-10-29T11:00:06.881Z,96299.78
2022-10-29T11:03:16.939Z,96296.66
2022-10-29T11:06:22.985Z,96292.38
2022-10-29T11:09:28.849Z,96291.59
2022-10-29T11:12:34.990Z,96290.78
2022-10-29T11:15:44.274Z,96287.22
2022-10-29T11:18:51.946Z,96286.06
2022-10-29T11:22:11.808Z,96273.56
2022-10-29T11:25:16.619Z,96270.41
2022-10-29T11:28:26.153Z,96263.78
2022-10-29T11:31:40.656Z,96262.59
2022-10-29T11:34:52.624Z,96267.25
2022-10-29T11:38:01.678Z,96266.06
2022-10-29T11:41:07.698Z,96262.16
2022-10-29T11:44:12.071Z,96259.00
2022-10-29T11:47:31.369Z,96259.28
2022-10-29T11:50:42.695Z,96250.53
2022-10-29T11:53:56.912Z,96253.53
2022-10-29T11:57:03.830Z,96244.81
2022-10-29T12:00:14.061Z,96246.31
2022-10-29T12:03:44.880Z,96238.44
2022-10-29T12:06:57.390Z,96244.66
2022-10-29T12:10:15.331Z,96239.63
2022-10-29T12:13:32.838Z,96229.91
2022-10-29T12:16:47.544Z,96227.63
2022-10-29T12:19:58.111Z,96231.47
2022-10-29T12:23:14.483Z,96221.75
2022-10-29T12:26:26.269Z,96233.78
2022-10-29T12:29:37.996Z,96228.38
2022-10-29T12:32:51.908Z,96228.38
2022-10-29T12:39:18.986Z,96220.50
2022-10-29T12:42:24.421Z,96216.16
2022-10-29T12:45:39.926Z,96209.09
2022-10-29T12:49:05.872Z,96213.38
2022-10-29T12:52:16.453Z,96214.50
2022-10-29T12:55:19.325Z,96212.56
2022-10-29T12:58:50.269Z,96203.56
2022-10-29T13:05:37.695Z,96201.47
2022-10-29T13:08:41.040Z,96198.69
2022-10-29T13:11:48.645Z,96196.69
2022-10-29T13:14:55.607Z,96199.06
2022-10-29T13:18:04.897Z,96194.09
2022-10-29T13:21:06.882Z,96186.69
2022-10-29T13:24:16.700Z,96187.44
2022-10-29T13:27:34.515Z,96187.34
2022-10-29T13:30:37.426Z,96186.22
2022-10-29T13:33:49.532Z,96181.06
2022-10-29T13:36:51.496Z,96172.50
2022-10-29T13:40:26.723Z,96176.31
2022-10-29T13:43:31.707Z,96171.63
2022-10-29T13:46:47.278Z,96174.72
2022-10-29T13:49:50.564Z,96180.94
2022-10-29T13:52:56.779Z,96174.72
2022-10-29T13:55:59.778Z,96176.28
2022-10-29T13:59:08.517Z,96173.94
2022-10-29T14:02:28.751Z,96173.16
2022-10-29T14:05:35.017Z,96173.13
2022-10-29T14:08:43.845Z,96170.38
2022-10-29T14:11:55.729Z,96167.28
2022-10-29T14:15:04.219Z,96161.13
2022-10-29T14:18:18.726Z,96161.16
2022-10-29T14:21:23.788Z,96165.13
2022-10-29T14:24:25.724Z,96162.81
2022-10-29T14:27:27.851Z,96162.44
2022-10-29T14:30:31.292Z,96162.09
2022-10-29T14:33:34.976Z,96166.41
2022-10-29T14:36:40.994Z,96164.16
2022-10-29T14:39:57.952Z,96159.91
2022-10-29T14:43:01.419Z,96168.53
2022-10-29T14:46:17.317Z,96170.44
2022-10-29T14:49:21.564Z,96162.66
2022-10-29T14:52:29.653Z,96172.41
2022-10-29T14:55:35.264Z,96165.00
2022-10-29T14:58:38.632Z,96169.72
2022-10-29T15:01:56.742Z,96165.00
2022-10-29T15:05:07.482Z,96164.34
2022-10-29T15:08:16.924Z,96167.09
2022-10-29T15:11:36.731Z,96157.34
2022-10-29T15:14:46.536Z,96160.88
2022-10-29T15:17:53.804Z,96167.16
2022-10-29T15:20:56.388Z,96164.06
2022-10-29T15:24:02.765Z,96163.72
2022-10-29T15:27:04.941Z,96162.22
2022-10-29T15:30:07.852Z,96164.59
2022-10-29T15:33:18.191Z,96165.41
2022-10-29T15:36:20.396Z,96162.34
2022-10-29T15:39:24.963Z,96169.84
2022-10-29T15:42:28.596Z,96168.31
2022-10-29T15:45:30.629Z,96174.63
2022-10-29T15:48:36.867Z,96171.38
2022-10-29T15:51:38.923Z,96171.38
2022-10-29T15:54:40.849Z,96177.56
2022-10-29T15:57:44.360Z,96168.69
2022-10-29T16:00:47.580Z,96168.72
2022-10-29T16:03:51.106Z,96178.22
2022-10-29T16:06:53.125Z,96174.06
2022-10-29T16:09:57.971Z,96170.75
2022-10-29T16:13:00.297Z,96172.72
2022-10-29T16:16:02.465Z,96177.09
2022-10-29T16:19:06.121Z,96174.84
2022-10-29T16:22:13.394Z,96172.03
2022-10-29T16:25:27.175Z,96172.09
2022-10-29T16:28:29.107Z,96167.47
2022-10-29T16:31:31.105Z,96170.19
2022-10-29T16:34:36.598Z,96167.00
2022-10-29T16:37:38.791Z,96174.34
2022-10-29T16:40:41.032Z,96171.63
2022-10-29T16:43:43.604Z,96170.91
2022-10-29T16:46:45.600Z,96165.84
2022-10-29T16:49:49.136Z,96170.50
2022-10-29T16:52:57.128Z,96162.31
2022-10-29T16:55:59.105Z,96168.97
2022-10-29T16:59:02.182Z,96166.75
2022-10-29T17:02:04.658Z,96167.50
2022-10-29T17:05:09.002Z,96172.19
2022-10-29T17:08:11.586Z,96169.06
2022-10-29T17:11:13.524Z,96173.41
2022-10-29T17:14:15.875Z,96176.50
2022-10-29T17:17:18.182Z,96176.09
2022-10-29T17:20:21.731Z,96174.19
2022-10-29T17:23:24.178Z,96174.97
2022-10-29T17:26:27.636Z,96177.28
2022-10-29T17:29:35.193Z,96167.63
2022-10-29T17:32:38.661Z,96172.69
2022-10-29T17:35:42.506Z,96169.22
2022-10-29T17:38:44.694Z,96171.94
2022-10-29T17:41:47.268Z,96175.38
2022-10-29T17:44:49.934Z,96168.00
2022-10-29T17:47:55.503Z,96167.97
2022-10-29T17:51:01.275Z,96167.88
2022-10-29T17:54:03.893Z,96170.13
2022-10-29T17:57:06.319Z,96179.81
2022-10-29T18:00:09.824Z,96178.22
2022-10-29T18:03:12.974Z,96175.13
2022-10-29T18:06:17.399Z,96177.13
2022-10-29T18:09:21.195Z,96174.06
2022-10-29T18:12:23.444Z,96179.81
2022-10-29T18:15:25.505Z,96176.38
2022-10-29T18:18:27.998Z,96175.59
2022-10-29T18:21:33.146Z,96170.19
2022-10-29T18:24:35.583Z,96172.91
2022-10-29T18:27:39.288Z,96169.81
2022-10-29T18:30:41.242Z,96169.34
2022-10-29T18:33:43.934Z,96174.19
2022-10-29T18:36:48.393Z,96171.38
2022-10-29T18:39:50.382Z,96168.34
2022-10-29T18:42:53.031Z,96168.31
2022-10-29T18:45:56.935Z,96167.06
2022-10-29T18:49:00.644Z,96160.25
2022-10-29T18:52:05.465Z,96157.72
2022-10-29T18:55:08.567Z,96154.41
2022-10-29T18:58:10.844Z,96153.31
2022-10-29T19:01:14.850Z,96155.78
2022-10-29T19:04:17.435Z,96145.81
2022-10-29T19:07:21.298Z,96156.91
2022-10-29T19:10:23.344Z,96142.81
2022-10-29T19:13:25.589Z,96136.50
2022-10-29T19:16:29.546Z,96139.03
2022-10-29T19:19:32.054Z,96139.13
2022-10-29T19:22:35.713Z,96133.78
2022-10-29T19:25:40.293Z,96130.72
2022-10-29T19:28:43.160Z,96129.66
2022-10-29T19:31:46.297Z,96135.19
2022-10-29T19:34:48.594Z,96133.63
2022-10-29T19:37:52.793Z,96140.72
2022-10-29T19:40:55.807Z,96133.72
2022-10-29T19:43:59.473Z,96140.50
2022-10-29T19:47:02.196Z,96140.56
2022-10-29T19:50:05.086Z,96140.06
2022-10-29T19:53:09.251Z,96137.00
2022-10-29T19:56:12.717Z,96139.69
2022-10-29T19:59:16.738Z,96137.50
2022-10-29T20:02:18.866Z,96135.00
2022-10-29T20:05:20.882Z,96137.38
2022-10-29T20:08:24.738Z,96134.78
2022-10-29T20:11:27.344Z,96130.75
2022-10-29T20:14:29.651Z,96129.75
2022-10-29T20:17:32.378Z,96130.59
2022-10-29T20:20:34.503Z,96130.97
2022-10-29T20:23:38.153Z,96133.81
2022-10-29T20:26:40.739Z,96139.66
2022-10-29T20:29:43.158Z,96143.38
2022-10-29T20:32:45.873Z,96139.75
2022-10-29T20:35:47.983Z,96137.16
2022-10-29T20:38:52.660Z,96142.66
2022-10-29T20:41:54.757Z,96138.34
2022-10-29T20:44:57.464Z,96140.56
2022-10-29T20:48:02.221Z,96138.59
2022-10-29T20:51:04.587Z,96134.78
2022-10-29T20:54:08.122Z,96137.53
2022-10-29T20:57:10.444Z,96141.50
2022-10-29T21:00:13.377Z,96141.28
2022-10-29T21:03:16.580Z,96138.28
2022-10-29T21:06:19.286Z,96139.88
2022-10-29T21:09:22.585Z,96139.16
2022-10-29T21:12:24.535Z,96136.09
2022-10-29T21:15:26.524Z,96142.72
2022-10-29T21:18:28.469Z,96140.34
2022-10-29T21:21:30.628Z,96136.13
2022-10-29T21:24:35.416Z,96130.38
2022-10-29T21:27:37.466Z,96137.38
2022-10-29T21:30:39.444Z,96123.31
2022-10-29T21:33:41.809Z,96127.56
2022-10-29T21:36:43.751Z,96127.72
2022-10-29T21:39:47.132Z,96127.47
2022-10-29T21:42:49.063Z,96124.38
2022-10-29T21:45:51.845Z,96123.41
2022-10-29T21:48:55.013Z,96118.97
2022-10-29T21:51:56.934Z,96126.09
2022-10-29T21:55:00.256Z,96120.81
2022-10-29T21:58:02.937Z,96121.22
2022-10-29T22:01:07.549Z,96125.88
2022-10-29T22:04:09.556Z,96129.72
2022-10-29T22:07:11.453Z,96123.91
2022-10-29T22:10:14.894Z,96122.53
2022-10-29T22:13:16.972Z,96120.16
2022-10-29T22:16:19.017Z,96123.47
2022-10-29T22:19:20.885Z,96121.09
2022-10-29T22:22:23.014Z,96112.66
2022-10-29T22:25:26.272Z,96115.47
2022-10-29T22:28:28.282Z,96116.41
2022-10-29T22:31:30.290Z,96115.31
2022-10-29T22:34:32.251Z,96119.22
2022-10-29T22:37:34.097Z,96120.44
2022-10-29T22:40:40.977Z,96111.13
2022-10-29T22:43:43.884Z,96111.06
2022-10-29T22:46:45.988Z,96117.22
2022-10-29T22:49:47.910Z,96104.81
2022-10-29T22:52:49.936Z,96114.53
2022-10-29T22:55:53.747Z,96109.53
2022-10-29T22:58:56.226Z,96112.28
2022-10-29T23:01:58.284Z,96110.75
2022-10-29T23:05:00.318Z,96109.94
2022-10-29T23:08:02.237Z,96117.63
2022-10-29T23:11:07.208Z,96109.06
2022-10-29T23:14:09.154Z,96111.78
2022-10-29T23:17:11.055Z,96115.25
2022-10-29T23:20:13.027Z,96110.53
2022-10-29T23:23:14.912Z,96108.25
2022-10-29T23:26:19.469Z,96113.22
2022-10-29T23:29:21.460Z,96106.22
2022-10-29T23:32:23.415Z,96103.75
2022-10-29T23:35:25.440Z,96103.03
2022-10-29T23:38:27.426Z,96101.59
2022-10-29T23:41:31.323Z,96097.88
2022-10-29T23:44:33.219Z,96094.44
2022-10-29T23:47:35.256Z,96099.13
2022-10-29T23:50:37.870Z,96091.84
2022-10-29T23:53:41.007Z,96093.41
2022-10-29T23:56:44.299Z,96087.59
2022-10-29T23:59:46.195Z,96084.53
